Terminal Aerodrome Forecast
Issued by NWS

Home | Current Version | Previous Version | Text Only | Print | Product List | Glossary On
Versions: 1 2 3 4 5 6 7 8 9 10 11 12 13
000
FTUS44 KTSA 191700
TAFFYV
TAF
KFYV 191733Z 1918/2018 17008KT P6SM SCT250
     FM200100 VRB03KT P6SM BKN200
     FM201700 18010KT P6SM SCT045 OVC150=

USA.gov is the U.S. government's official web portal to all federal, state and local government web resources and services.